Time;durP1;ratioP1;P1;durP2;ratioP2;P2;SDS_P1;SDS_P2;PMS_P1;PMS_P2;Temp;Humidity;BMP_temperature;BMP_pressure;BME280_temperature;BME280_humidity;BME280_pressure;Samples;Min_cycle;Max_cycle;Signal;HPM_P1;HPM_P2
2021/01/03 00:05:33;;;;;;;26.38;12.00;;;0.90;99.90;;;;;;21101719;28;19945;-78
2021/01/03 00:15:34;;;;;;;28.58;12.82;;;1.00;99.90;;;;;;21129138;28;20051;-77
2021/01/03 00:25:34;;;;;;;;;;;1.00;99.90;;;;;;21151735;28;20536;-78
2021/01/03 00:35:36;;;;;;;36.20;13.93;;;1.10;99.90;;;;;;21130059;28;20445;-77
2021/01/03 00:45:37;;;;;;;33.97;13.55;;;1.10;99.90;;;;;;21067141;28;20020;-77
2021/01/03 00:55:37;;;;;;;;;;;1.00;99.90;;;;;;21079620;28;20035;-77
2021/01/03 01:05:38;;;;;;;26.30;13.07;;;1.10;99.90;;;;;;21090456;28;19935;-77
2021/01/03 01:15:39;;;;;;;;;;;1.00;99.90;;;;;;21099410;28;20042;-77
2021/01/03 01:25:40;;;;;;;35.45;15.35;;;0.90;99.90;;;;;;21158809;28;19915;-76
2021/01/03 01:35:41;;;;;;;;;;;0.80;99.90;;;;;;21086768;28;20028;-76
2021/01/03 01:45:45;;;;;;;41.83;14.88;;;0.80;99.90;;;;;;21080720;28;19912;-75
2021/01/03 01:55:58;;;;;;;36.40;14.70;;;0.70;99.90;;;;;;21077716;28;20115;-75
2021/01/03 02:06:46;;;;;;;34.50;14.30;;;0.80;99.90;;;;;;21076323;28;20491;-75
2021/01/03 02:16:47;;;;;;;34.85;13.75;;;0.80;99.90;;;;;;21055245;28;20070;-77
2021/01/03 02:26:50;;;;;;;;;;;0.90;99.90;;;;;;21075049;28;20399;-77
2021/01/03 02:36:57;;;;;;;29.23;13.85;;;1.00;99.90;;;;;;21080155;28;19912;-77
2021/01/03 02:46:57;;;;;;;31.45;13.80;;;1.00;99.90;;;;;;21083879;28;20055;-79
2021/01/03 02:56:59;;;;;;;34.50;13.05;;;1.00;99.90;;;;;;21085259;28;20403;-79
2021/01/03 03:07:00;;;;;;;29.70;13.15;;;1.00;99.90;;;;;;21084013;28;20035;-80
2021/01/03 03:17:03;;;;;;;;;;;0.90;99.90;;;;;;21086632;28;20032;-80
2021/01/03 03:27:04;;;;;;;30.60;14.25;;;0.90;99.90;;;;;;21087663;28;19916;-80
2021/01/03 03:37:05;;;;;;;;;;;0.90;99.90;;;;;;21096893;28;20032;-79
2021/01/03 03:47:06;;;;;;;27.77;13.40;;;0.80;99.90;;;;;;21084283;28;19968;-79
2021/01/03 03:57:07;;;;;;;29.00;13.38;;;0.90;99.90;;;;;;21091851;28;20028;-80
2021/01/03 04:07:08;;;;;;;28.10;13.50;;;1.00;99.90;;;;;;21096720;28;20032;-79
2021/01/03 04:17:09;;;;;;;30.77;14.18;;;0.90;99.90;;;;;;21097708;28;20495;-78
2021/01/03 04:27:09;;;;;;;;;;;0.90;99.90;;;;;;21097128;28;20121;-79
2021/01/03 04:37:11;;;;;;;28.95;13.57;;;0.90;99.90;;;;;;21093167;28;19915;-80
2021/01/03 04:47:37;;;;;;;25.73;12.00;;;0.80;99.90;;;;;;21078659;28;20040;-79
2021/01/03 04:58:05;;;;;;;27.73;13.70;;;0.90;99.90;;;;;;21077613;28;20050;-78
2021/01/03 05:08:25;;;;;;;28.67;13.77;;;0.90;99.90;;;;;;21093266;28;20043;-79
2021/01/03 05:18:26;;;;;;;29.40;13.40;;;0.80;99.90;;;;;;21094708;28;20034;-77
2021/01/03 05:28:28;;;;;;;;;;;0.70;99.90;;;;;;21095586;28;20036;-77
2021/01/03 05:38:38;;;;;;;28.03;13.77;;;0.80;99.90;;;;;;21094013;28;19908;-80
2021/01/03 05:49:01;;;;;;;31.35;14.52;;;0.70;99.90;;;;;;21093059;28;20061;-79
2021/01/03 05:59:03;;;;;;;29.95;15.02;;;0.60;99.90;;;;;;21094208;28;20111;-80
2021/01/03 06:09:05;;;;;;;33.80;15.60;;;0.60;99.90;;;;;;21100808;28;20032;-79
2021/01/03 06:19:34;;;;;;;33.28;14.73;;;0.50;99.90;;;;;;21086937;28;20054;-79
2021/01/03 06:29:41;;;;;;;28.90;13.95;;;0.50;99.90;;;;;;21084928;28;20036;-79
2021/01/03 06:40:05;;;;;;;29.27;13.45;;;0.50;99.90;;;;;;21085207;28;20038;-77
2021/01/03 06:50:35;;;;;;;29.02;14.00;;;0.60;99.90;;;;;;21086454;28;20036;-79
2021/01/03 07:00:43;;;;;;;29.73;13.75;;;0.60;99.90;;;;;;21088720;28;20402;-78
2021/01/03 07:10:44;;;;;;;30.60;14.55;;;0.60;99.90;;;;;;21073620;28;20029;-78
2021/01/03 07:20:59;;;;;;;32.38;14.68;;;0.50;99.90;;;;;;21069738;28;20487;-79
2021/01/03 07:31:05;;;;;;;34.53;16.40;;;0.40;99.90;;;;;;21094130;28;20035;-78
2021/01/03 07:41:07;;;;;;;35.10;15.88;;;0.40;99.90;;;;;;21102843;28;20036;-79
2021/01/03 07:51:11;;;;;;;37.55;16.20;;;0.40;99.90;;;;;;21104191;28;20030;-78
2021/01/03 08:01:16;;;;;;;30.60;16.13;;;0.30;99.90;;;;;;21104622;28;20036;-79
2021/01/03 08:11:22;;;;;;;34.38;16.60;;;0.30;99.90;;;;;;21102859;28;20032;-79
2021/01/03 08:21:23;;;;;;;31.48;15.95;;;0.40;99.90;;;;;;21102056;28;20032;-79
2021/01/03 08:31:27;;;;;;;32.95;15.35;;;0.40;99.90;;;;;;21097863;28;20487;-77
2021/01/03 08:41:32;;;;;;;33.15;16.40;;;0.40;99.90;;;;;;21096352;28;20059;-77
2021/01/03 08:51:34;;;;;;;31.85;15.13;;;0.40;99.90;;;;;;21083680;28;20058;-77
2021/01/03 09:01:35;;;;;;;35.08;16.35;;;0.50;99.90;;;;;;21082850;28;20028;-77
2021/01/03 09:11:47;;;;;;;37.97;17.23;;;0.50;99.90;;;;;;21080390;28;20032;-77
2021/01/03 09:22:01;;;;;;;40.63;18.50;;;0.50;99.90;;;;;;21070188;28;20027;-77
2021/01/03 09:32:05;;;;;;;41.47;18.27;;;0.60;99.90;;;;;;20977903;28;20582;-76
2021/01/03 09:42:32;;;;;;;36.38;17.58;;;0.70;99.90;;;;;;20976515;28;20042;-76
2021/01/03 09:52:46;;;;;;;36.20;17.15;;;0.70;99.90;;;;;;20977078;28;20078;-76
2021/01/03 10:02:48;;;;;;;37.63;17.52;;;0.70;99.90;;;;;;20978004;28;20036;-78
2021/01/03 10:12:48;;;;;;;41.03;18.42;;;0.80;99.90;;;;;;20983792;28;20434;-77
2021/01/03 10:22:49;;;;;;;40.22;18.02;;;0.80;99.90;;;;;;21059366;28;20042;-76
2021/01/03 10:32:50;;;;;;;37.55;17.90;;;0.80;99.90;;;;;;21058737;28;20043;-78
2021/01/03 10:42:51;;;;;;;37.22;17.48;;;0.80;99.90;;;;;;21061309;28;20032;-78
2021/01/03 10:52:52;;;;;;;37.60;17.50;;;0.70;99.90;;;;;;21056672;28;20502;-78
2021/01/03 11:02:53;;;;;;;41.00;17.15;;;0.80;99.90;;;;;;21055432;28;20515;-77
2021/01/03 11:12:54;;;;;;;41.33;17.63;;;0.70;99.90;;;;;;21062814;28;20029;-78
2021/01/03 11:22:55;;;;;;;43.17;17.88;;;0.70;99.90;;;;;;21098235;28;20035;-78
2021/01/03 11:32:55;;;;;;;36.10;18.08;;;0.80;99.90;;;;;;21121632;28;20111;-77
2021/01/03 11:42:57;;;;;;;40.22;17.20;;;0.70;99.90;;;;;;21103108;28;20156;-78
2021/01/03 11:52:58;;;;;;;39.13;17.70;;;0.70;99.90;;;;;;21148312;28;20123;-79
2021/01/03 12:02:59;;;;;;;42.42;19.00;;;0.50;99.90;;;;;;21102027;28;20448;-79
2021/01/03 12:13:00;;;;;;;46.47;21.30;;;0.60;99.90;;;;;;21090986;28;20049;-79
2021/01/03 12:23:01;;;;;;;40.95;18.27;;;0.70;99.90;;;;;;21093974;28;20056;-80
2021/01/03 12:33:02;;;;;;;42.88;19.15;;;0.90;99.90;;;;;;21096628;28;20046;-79
2021/01/03 12:43:04;;;;;;;41.13;18.80;;;1.00;99.90;;;;;;21081859;28;20031;-80
2021/01/03 12:53:05;;;;;;;41.38;18.38;;;0.80;99.90;;;;;;21081748;28;20056;-79
2021/01/03 13:03:05;;;;;;;41.15;18.73;;;0.80;99.90;;;;;;21126462;28;20144;-79
2021/01/03 13:13:06;;;;;;;48.80;18.75;;;0.60;99.90;;;;;;21090629;28;20040;-79
2021/01/03 13:23:07;;;;;;;48.15;19.60;;;0.60;99.90;;;;;;21080392;28;20024;-78
2021/01/03 13:33:08;;;;;;;53.08;19.65;;;0.70;99.90;;;;;;21080385;28;20089;-79
2021/01/03 13:43:10;;;;;;;43.08;20.33;;;0.70;99.90;;;;;;21087519;28;20036;-78
2021/01/03 13:53:10;;;;;;;45.95;19.98;;;0.60;99.90;;;;;;21076932;28;20619;-80
2021/01/03 14:03:12;;;;;;;51.40;19.35;;;0.70;99.90;;;;;;21092535;28;20079;-78
2021/01/03 14:13:14;;;;;;;45.47;19.83;;;0.80;99.90;;;;;;21077998;28;20036;-78
2021/01/03 14:23:14;;;;;;;49.13;19.80;;;0.70;99.90;;;;;;21064414;28;20414;-79
2021/01/03 14:33:15;;;;;;;43.03;18.75;;;0.70;99.90;;;;;;21076395;28;20597;-78
2021/01/03 14:43:31;;;;;;;53.05;21.85;;;0.70;99.90;;;;;;21073021;28;20039;-78
2021/01/03 14:53:37;;;;;;;48.33;20.17;;;0.60;99.90;;;;;;21071544;28;20036;-79
2021/01/03 15:04:15;;;;;;;51.65;20.92;;;0.60;99.90;;;;;;21055263;28;20104;-79
2021/01/03 15:14:16;;;;;;;69.07;23.88;;;0.60;99.90;;;;;;21002167;28;20075;-79
2021/01/03 15:24:19;;;;;;;61.17;24.15;;;0.50;99.90;;;;;;21068610;28;20043;-79
2021/01/03 15:34:41;;;;;;;56.97;22.55;;;0.50;99.90;;;;;;21069380;28;20028;-80
2021/01/03 15:44:50;;;;;;;50.53;20.25;;;0.40;99.90;;;;;;21069821;28;20058;-80
2021/01/03 15:54:52;;;;;;;60.78;21.58;;;0.40;99.90;;;;;;21078145;28;20080;-80
2021/01/03 16:04:53;;;;;;;48.85;21.15;;;0.40;99.90;;;;;;21104348;28;20025;-81
2021/01/03 16:14:54;;;;;;;55.13;22.17;;;0.40;99.90;;;;;;21110249;28;20458;-80
2021/01/03 16:25:28;;;;;;;55.60;22.35;;;0.40;99.90;;;;;;21085876;28;20036;-80
2021/01/03 16:35:35;;;;;;;55.53;23.40;;;0.40;99.90;;;;;;21085519;28;20425;-79
2021/01/03 16:45:42;;;;;;;54.92;23.05;;;0.40;99.90;;;;;;21096939;28;20032;-80
2021/01/03 16:56:06;;;;;;;53.20;21.52;;;0.40;99.90;;;;;;21094893;28;20040;-80
2021/01/03 17:06:27;;;;;;;54.20;22.92;;;0.40;99.90;;;;;;21113873;28;20028;-80
2021/01/03 17:16:37;;;;;;;;;;;0.40;99.90;;;;;;21140309;28;20039;-80
2021/01/03 17:27:17;;;;;;;58.10;23.30;;;0.40;99.90;;;;;;21066932;28;19976;-80
2021/01/03 17:37:59;;;;;;;61.45;23.63;;;0.40;99.90;;;;;;21042948;28;20043;-80
2021/01/03 17:48:02;;;;;;;62.85;25.05;;;0.40;99.90;;;;;;21066603;28;20062;-78
2021/01/03 17:58:03;;;;;;;59.20;22.23;;;0.40;99.90;;;;;;21043916;28;20153;-79
2021/01/03 18:08:04;;;;;;;61.72;22.60;;;0.40;99.90;;;;;;21084334;28;20040;-79
2021/01/03 18:18:05;;;;;;;54.53;22.83;;;0.40;99.90;;;;;;21077526;28;20039;-79
2021/01/03 18:28:07;;;;;;;59.40;23.63;;;0.40;99.90;;;;;;21062213;28;20036;-79
2021/01/03 18:38:11;;;;;;;55.70;24.77;;;0.40;99.90;;;;;;21057117;28;20036;-79
2021/01/03 18:48:14;;;;;;;57.47;23.30;;;0.50;99.90;;;;;;21059905;28;20036;-77
2021/01/03 18:58:16;;;;;;;52.83;22.17;;;0.50;99.90;;;;;;21044394;28;20567;-77
2021/01/03 19:08:19;;;;;;;54.47;23.02;;;0.50;99.90;;;;;;21122336;28;20097;-77
2021/01/03 19:18:20;;;;;;;58.55;23.00;;;0.50;99.90;;;;;;21127630;28;20035;-79
2021/01/03 19:28:20;;;;;;;57.13;23.80;;;0.50;99.90;;;;;;21061106;28;20036;-79
2021/01/03 19:38:21;;;;;;;;;;;0.60;99.90;;;;;;21073532;28;20044;-81
2021/01/03 19:48:22;;;;;;;49.15;21.67;;;0.60;99.90;;;;;;21072931;28;19916;-80
2021/01/03 19:58:23;;;;;;;59.80;21.90;;;0.70;99.90;;;;;;21070701;28;20042;-79
2021/01/03 20:08:24;;;;;;;;;;;0.60;99.90;;;;;;21072558;28;20028;-78
2021/01/03 20:18:25;;;;;;;49.28;20.85;;;0.60;99.90;;;;;;21058486;28;19912;-80
2021/01/03 20:28:26;;;;;;;;;;;0.60;99.90;;;;;;21068280;28;20024;-80
2021/01/03 20:38:26;;;;;;;46.08;19.05;;;0.60;99.90;;;;;;21068106;28;19911;-80
2021/01/03 20:48:28;;;;;;;;;;;0.70;99.90;;;;;;21052849;28;20047;-79
2021/01/03 20:58:28;;;;;;;54.15;21.90;;;0.70;99.90;;;;;;21066558;28;19951;-78
2021/01/03 21:08:29;;;;;;;55.20;22.05;;;0.50;99.90;;;;;;21077373;28;20058;-79
2021/01/03 21:18:30;;;;;;;53.90;20.30;;;0.30;99.90;;;;;;21049509;28;20174;-77
2021/01/03 21:28:37;;;;;;;54.70;21.63;;;0.30;99.90;;;;;;21071773;28;20074;-77
2021/01/03 21:38:42;;;;;;;47.78;19.92;;;0.20;99.90;;;;;;21068052;28;20653;-77
2021/01/03 21:48:49;;;;;;;51.30;19.85;;;-0.10;99.90;;;;;;21091237;28;20717;-77
2021/01/03 21:59:21;;;;;;;59.85;21.80;;;0.00;99.90;;;;;;21143490;28;20038;-77
2021/01/03 22:09:31;;;;;;;54.13;20.20;;;-0.30;99.90;;;;;;21072886;28;20036;-77
2021/01/03 22:19:55;;;;;;;57.63;19.98;;;-0.50;99.90;;;;;;21000720;28;20041;-76
2021/01/03 22:30:17;;;;;;;45.10;19.45;;;-0.60;99.90;;;;;;20998809;28;20043;-77
2021/01/03 22:40:33;;;;;;;54.38;20.98;;;-0.70;99.90;;;;;;21069809;28;20379;-76
2021/01/03 22:50:50;;;;;;;48.97;20.85;;;-0.90;99.90;;;;;;21056397;28;20028;-76
2021/01/03 23:01:16;;;;;;;56.53;21.98;;;-0.90;99.90;;;;;;21070209;28;20394;-77
2021/01/03 23:11:23;;;;;;;63.58;22.90;;;-1.00;99.90;;;;;;21069254;28;20490;-76
2021/01/03 23:21:29;;;;;;;59.67;21.70;;;-1.10;99.90;;;;;;21070077;28;20028;-76
2021/01/03 23:31:31;;;;;;;56.88;21.05;;;-1.30;99.90;;;;;;21076198;28;20024;-77
2021/01/03 23:41:36;;;;;;;45.92;17.48;;;-1.30;99.90;;;;;;21076629;28;20144;-78
2021/01/03 23:52:10;;;;;;;54.10;20.98;;;-1.40;99.90;;;;;;21082822;28;20054;-78
